Terminal Aerodrome Forecast
Issued by NWS

Home | Current Version | Previous Version | Graphics & Text | Print | Product List | Glossary On
Versions: 1 2 3 4 5 6 7 8 9 10 11 12 13 14 15 16 17
755
FTUS43 KTOP 150520
TAFFOE
TAF
KFOE 150520Z 1506/1606 30010KT P6SM -RA OVC030
     FM150700 33010G18KT P6SM BKN030
     FM151800 33015G25KT P6SM SCT040
     FM160000 33010KT P6SM SKC=

USA.gov is the U.S. government's official web portal to all federal, state and local government web resources and services.